MSC Sinfonia — H8XH — position and weather

sailwx.info

Track history (hours):
 
Tides and Currents Weather Stations Pressure Air Temp Water Temp Dewpoint Dewpoint Depression Visibility Wind Speed Wind Dir Waves Ship Positions

MSC Sinfonia

Last reported at 2016-Jun-01 06:31 UTC. Time now 2016-Jun-01 07:28 UTC.
Position N 45°26' E 012°19'.

Length 251 m; draft 6.8 m.

Type: Passenger vessel. MMSI: 356715971.

Date/timePositionNaut miles runAvg speedWind from/ knotsBaromVisibWave heightAir tempDewpointWater temp
2016-Jun-01 06:31N 45°26' E 012°19'3 2.7
2016-Jun-01 05:34N 45°25' E 012°22'1212.0
2016-Jun-01 04:34N 45°20' E 012°37'1817.6
2016-Jun-01 03:33N 45°10' E 012°57'  
2016-May-29 03:17N 44°07' E 014°02'1217.2
2016-May-29 02:33N 44°17' E 013°52'1717.0
2016-May-29 01:34N 44°31' E 013°38'1717.0
2016-May-29 00:34N 44°45' E 013°26'1917.1
2016-May-28 23:26N 45°02' E 013°11'1516.9
2016-May-28 22:33N 45°12' E 012°57'1716.7
2016-May-28 21:33N 45°21' E 012°36'1111.3
2016-May-28 20:33N 45°25' E 012°22'2 2.2
2016-May-28 19:32N 45°26' E 012°18'0 0.0
2016-May-28 18:32N 45°26' E 012°18'0 0.0
2016-May-28 17:32N 45°26' E 012°18'0 0.0
2016-May-28 16:32N 45°26' E 012°18'0 0.0
2016-May-28 15:32N 45°26' E 012°18'0 0.0
2016-May-28 14:29N 45°26' E 012°18'0 0.0
2016-May-28 13:29N 45°26' E 012°18'0 0.0
2016-May-28 12:32N 45°26' E 012°18'0 0.0
2016-May-28 11:32N 45°26' E 012°18'0 0.0
2016-May-28 10:32N 45°26' E 012°18'0 0.0
2016-May-28 09:32N 45°26' E 012°18'0 0.0
2016-May-28 08:32N 45°26' E 012°18'0 0.0
2016-May-28 07:32N 45°26' E 012°18'0 0.0
2016-May-28 06:32N 45°26' E 012°18'3 2.8
2016-May-28 05:34N 45°25' E 012°22'10 9.6
2016-May-28 04:33N 45°22' E 012°35'1211.6
2016-May-28 03:33N 45°12' E 012°44'1110.6
2016-May-28 02:33N 45°03' E 012°52'1110.5
2016-May-28 01:33N 44°53' E 012°57'1010.4
2016-May-28 00:33N 44°44' E 013°03'1110.5
2016-May-27 23:33N 44°34' E 013°07'1110.5
2016-May-27 22:33N 44°24' E 013°12'1010.2
2016-May-27 21:33N 44°15' E 013°20'1110.7
2016-May-27 20:33N 44°09' E 013°32'1110.6
2016-May-27 19:33N 44°02' E 013°43'18 8.9
2016-May-27 17:30N 43°44' E 013°42'1111.7
2016-May-27 16:33N 43°38' E 013°29'1 1.2
2016-May-27 15:33N 43°37' E 013°30'0 0.0
2016-May-27 13:33N 43°37' E 013°30'0 0.0
2016-May-27 12:33N 43°37' E 013°30'0 0.0
2016-May-27 11:33N 43°37' E 013°30'0 0.0
2016-May-27 10:30N 43°37' E 013°30'0 0.0
2016-May-27 09:33N 43°37' E 013°30'0 0.0
2016-May-27 08:33N 43°37' E 013°30'0 0.0
2016-May-27 07:33N 43°37' E 013°30'4 3.9
2016-May-27 06:33N 43°40' E 013°33'1110.8
2016-May-27 05:33N 43°40' E 013°48'1312.7
2016-May-27 04:33N 43°35' E 014°04'1212.0
2016-May-27 03:34N 43°30' E 014°19'177 7.4
2016-May-26 03:33N 42°31' E 018°08'10 9.5
2016-May-26 02:29N 42°21' E 018°06'1010.6
2016-May-26 01:33N 42°11' E 018°09'1110.6
2016-May-26 00:32N 42°01' E 018°12'37212.3
2016-May-24 18:15N 36°20' E 014°60'1216.9
2016-May-24 17:33N 36°12' E 014°50'1717.4
2016-May-24 16:33N 35°58' E 014°36'6 1.2
2016-May-24 11:23N 35°54' E 014°31'0 0.0
2016-May-24 10:26N 35°54' E 014°31'0 0.0
2016-May-24 09:20N 35°54' E 014°31'4 0.8
2016-May-24 04:34N 35°57' E 014°32'1514.7
2016-May-24 03:33N 36°11' E 014°26'1313.3
2016-May-24 02:33N 36°24' E 014°21'1616.0
2016-May-24 01:33N 36°38' E 014°13'1716.9
2016-May-24 00:34N 36°48' E 013°56'1616.5
2016-May-23 23:34N 36°57' E 013°39'1716.5
2016-May-23 22:33N 37°07' E 013°21'7316.5
2016-May-23 18:07N 37°43' E 012°01'1616.7
2016-May-23 17:10N 37°52' E 011°45'37817.1
2016-May-22 19:08N 38°14' E 003°46'1017.9
2016-May-22 18:33N 38°14' E 003°33'1817.5
2016-May-22 17:33N 38°13' E 003°11'1717.5
2016-May-22 16:33N 38°13' E 002°48'2417.9
2016-May-22 15:11N 38°04' E 002°19'1118.1
2016-May-22 14:33N 37°59' E 002°06'2019.5
2016-May-22 13:33N 37°51' E 001°44'1919.3
2016-May-22 12:33N 37°42' E 001°22'1919.1
2016-May-22 11:33N 37°34' E 001°00'1919.2
2016-May-22 10:34N 37°26' E 000°38'1919.2
2016-May-22 09:33N 37°18' E 000°16'1919.4
2016-May-22 08:33N 37°10' W 000°06'1919.4
2016-May-22 07:33N 37°01' W 000°28'1919.5
2016-May-22 06:33N 36°53' W 000°50'  
Track history (hours):
 
Tides and Currents Weather Stations Pressure Air Temp Water Temp Dewpoint Dewpoint Depression Visibility Wind Speed Wind Dir Waves Ship Positions

MSC Sinfonia

Last reported at 2016-Jun-01 06:31 UTC. Time now 2016-Jun-01 07:28 UTC.
Position N 45°26' E 012°19'.

Length 251 m; draft 6.8 m.

Type: Passenger vessel. MMSI: 356715971.

Date/timePositionNaut miles runAvg speedWind from/ knotsBaromVisibWave heightAir tempDewpointWater temp
2016-Jun-01 06:31N 45°26' E 012°19'3 2.7
2016-Jun-01 05:34N 45°25' E 012°22'1212.0
2016-Jun-01 04:34N 45°20' E 012°37'1817.6
2016-Jun-01 03:33N 45°10' E 012°57'  
2016-May-29 03:17N 44°07' E 014°02'1217.2
2016-May-29 02:33N 44°17' E 013°52'1717.0
2016-May-29 01:34N 44°31' E 013°38'1717.0
2016-May-29 00:34N 44°45' E 013°26'1917.1
2016-May-28 23:26N 45°02' E 013°11'1516.9
2016-May-28 22:33N 45°12' E 012°57'1716.7
2016-May-28 21:33N 45°21' E 012°36'1111.3
2016-May-28 20:33N 45°25' E 012°22'2 2.2
2016-May-28 19:32N 45°26' E 012°18'0 0.0
2016-May-28 18:32N 45°26' E 012°18'0 0.0
2016-May-28 17:32N 45°26' E 012°18'0 0.0
2016-May-28 16:32N 45°26' E 012°18'0 0.0
2016-May-28 15:32N 45°26' E 012°18'0 0.0
2016-May-28 14:29N 45°26' E 012°18'0 0.0
2016-May-28 13:29N 45°26' E 012°18'0 0.0
2016-May-28 12:32N 45°26' E 012°18'0 0.0
2016-May-28 11:32N 45°26' E 012°18'0 0.0
2016-May-28 10:32N 45°26' E 012°18'0 0.0
2016-May-28 09:32N 45°26' E 012°18'0 0.0
2016-May-28 08:32N 45°26' E 012°18'0 0.0
2016-May-28 07:32N 45°26' E 012°18'0 0.0
2016-May-28 06:32N 45°26' E 012°18'3 2.8
2016-May-28 05:34N 45°25' E 012°22'10 9.6
2016-May-28 04:33N 45°22' E 012°35'1211.6
2016-May-28 03:33N 45°12' E 012°44'1110.6
2016-May-28 02:33N 45°03' E 012°52'1110.5
2016-May-28 01:33N 44°53' E 012°57'1010.4
2016-May-28 00:33N 44°44' E 013°03'1110.5
2016-May-27 23:33N 44°34' E 013°07'1110.5
2016-May-27 22:33N 44°24' E 013°12'1010.2
2016-May-27 21:33N 44°15' E 013°20'1110.7
2016-May-27 20:33N 44°09' E 013°32'1110.6
2016-May-27 19:33N 44°02' E 013°43'18 8.9
2016-May-27 17:30N 43°44' E 013°42'1111.7
2016-May-27 16:33N 43°38' E 013°29'1 1.2
2016-May-27 15:33N 43°37' E 013°30'0 0.0
2016-May-27 13:33N 43°37' E 013°30'0 0.0
2016-May-27 12:33N 43°37' E 013°30'0 0.0
2016-May-27 11:33N 43°37' E 013°30'0 0.0
2016-May-27 10:30N 43°37' E 013°30'0 0.0
2016-May-27 09:33N 43°37' E 013°30'0 0.0
2016-May-27 08:33N 43°37' E 013°30'0 0.0
2016-May-27 07:33N 43°37' E 013°30'4 3.9
2016-May-27 06:33N 43°40' E 013°33'1110.8
2016-May-27 05:33N 43°40' E 013°48'1312.7
2016-May-27 04:33N 43°35' E 014°04'1212.0
2016-May-27 03:34N 43°30' E 014°19'177 7.4
2016-May-26 03:33N 42°31' E 018°08'10 9.5
2016-May-26 02:29N 42°21' E 018°06'1010.6
2016-May-26 01:33N 42°11' E 018°09'1110.6
2016-May-26 00:32N 42°01' E 018°12'37212.3
2016-May-24 18:15N 36°20' E 014°60'1216.9
2016-May-24 17:33N 36°12' E 014°50'1717.4
2016-May-24 16:33N 35°58' E 014°36'6 1.2
2016-May-24 11:23N 35°54' E 014°31'0 0.0
2016-May-24 10:26N 35°54' E 014°31'0 0.0
2016-May-24 09:20N 35°54' E 014°31'4 0.8
2016-May-24 04:34N 35°57' E 014°32'1514.7
2016-May-24 03:33N 36°11' E 014°26'1313.3
2016-May-24 02:33N 36°24' E 014°21'1616.0
2016-May-24 01:33N 36°38' E 014°13'1716.9
2016-May-24 00:34N 36°48' E 013°56'1616.5
2016-May-23 23:34N 36°57' E 013°39'1716.5
2016-May-23 22:33N 37°07' E 013°21'7316.5
2016-May-23 18:07N 37°43' E 012°01'1616.7
2016-May-23 17:10N 37°52' E 011°45'37817.1
2016-May-22 19:08N 38°14' E 003°46'1017.9
2016-May-22 18:33N 38°14' E 003°33'1817.5
2016-May-22 17:33N 38°13' E 003°11'1717.5
2016-May-22 16:33N 38°13' E 002°48'2417.9
2016-May-22 15:11N 38°04' E 002°19'1118.1
2016-May-22 14:33N 37°59' E 002°06'2019.5
2016-May-22 13:33N 37°51' E 001°44'1919.3
2016-May-22 12:33N 37°42' E 001°22'1919.1
2016-May-22 11:33N 37°34' E 001°00'1919.2
2016-May-22 10:34N 37°26' E 000°38'1919.2
2016-May-22 09:33N 37°18' E 000°16'1919.4
2016-May-22 08:33N 37°10' W 000°06'1919.4
2016-May-22 07:33N 37°01' W 000°28'1919.5
2016-May-22 06:33N 36°53' W 000°50'  

Dump ship's entire track history